This is the latest recevied weather packets stored in our database for station/object UR7D-12. If no packets are shown the sender has not sent any weather packets the latest 1 day(s).
| Time | Temp. | Humidity | Pressure | Rain* | Wind** | Luminosity | Snow |
|---|---|---|---|---|---|---|---|
| 1778003505 | 22.22° C | 38% | 985.5 hPa | 0 mm | 0.45 m/s, 127° | - | - |
| 1778003205 | 22.78° C | 38% | 985.5 hPa | 0 mm | 0.45 m/s, 139° | - | - |
| 1778002606 | 22.78° C | 37% | 985.5 hPa | 0 mm | 0.45 m/s, 143° | - | - |
| 1778002009 | 23.89° C | 36% | 985.6 hPa | 0 mm | 0.45 m/s, 135° | - | - |
| 1778001106 | 24.44° C | 34% | 985.4 hPa | 0 mm | 0.45 m/s, 148° | - | - |
| 1777999903 | 25° C | 34% | 985.6 hPa | 0 mm | 0.89 m/s, 198° | - | - |
| 1777999303 | 25° C | 34% | 985.6 hPa | 0 mm | 0.45 m/s, 202° | - | - |
| 1777999003 | 25° C | 34% | 985.7 hPa | 0 mm | 0.45 m/s, 211° | - | - |
| 1777997503 | 25.56° C | 31% | 985.8 hPa | 0 mm | 1.79 m/s, 231° | - | - |
| 1777996902 | 25.56° C | 31% | 985.8 hPa | 0 mm | 1.34 m/s, 199° | - | - |
| 1777996000 | 26.11° C | 30% | 985.8 hPa | 0 mm | 1.79 m/s, 193° | - | - |
| 1777995399 | 25.56° C | 29% | 986 hPa | 0 mm | 2.24 m/s, 241° | - | - |
| 1777995099 | 26.11° C | 31% | 986 hPa | 0 mm | 2.24 m/s, 229° | - | - |
| 1777994799 | 25.56° C | 29% | 986.1 hPa | 0 mm | 2.24 m/s, 227° | - | - |
| 1777994498 | 26.11° C | 30% | 986.1 hPa | 0 mm | 1.79 m/s, 224° | - | - |
| 1777993898 | 26.11° C | 31% | 986.2 hPa | 0 mm | 2.68 m/s, 174° | - | - |
| 1777993297 | 25.56° C | 29% | 986.2 hPa | 0 mm | 2.24 m/s, 239° | - | - |
| 1777992997 | 25.56° C | 29% | 986.3 hPa | 0 mm | 2.68 m/s, 252° | - | - |
| 1777992699 | 26.11° C | 30% | 986.4 hPa | 0 mm | 2.68 m/s, 163° | - | - |
| 1777992396 | 26.11° C | 29% | 986.4 hPa | 0 mm | 2.68 m/s, 188° | - | - |
| 1777991796 | 26.11° C | 30% | 986.5 hPa | 0 mm | 2.24 m/s, 241° | - | - |
| 1777991495 | 26.11° C | 29% | 986.5 hPa | 0 mm | 1.79 m/s, 209° | - | - |
| 1777991195 | 26.11° C | 32% | 986.5 hPa | 0 mm | 2.24 m/s, 153° | - | - |
| 1777990294 | 26.11° C | 29% | 986.7 hPa | 0 mm | 2.68 m/s, 217° | - | - |
| 1777989994 | 26.11° C | 29% | 986.8 hPa | 0 mm | 2.24 m/s, 259° | - | - |
* Rain latest hour (hover to see other rain measurements)
** Current wind speed in m/s (hover to see current wind gust speed)